Time;durP1;ratioP1;P1;durP2;ratioP2;P2;SDS_P1;SDS_P2;PMS_P1;PMS_P2;Temp;Humidity;BMP_temperature;BMP_pressure;BME280_temperature;BME280_humidity;BME280_pressure;Samples;Min_cycle;Max_cycle;Signal;HPM_P1;HPM_P2
2023/04/02 00:02:28;;;;;;;;;6.33;6.00;;;;;;;;5073788;27;45592;-68
2023/04/02 00:05:15;;;;;;;;;9.00;7.00;;;;;;;;5073331;27;45442;-67
2023/04/02 00:07:40;;;;;;;;;7.00;5.00;;;;;;;;5074035;27;45418;-68
2023/04/02 00:10:24;;;;;;;;;6.00;6.00;;;;;;;;5074376;27;45390;-68
2023/04/02 00:13:12;;;;;;;;;6.67;6.67;;;;;;;;5074115;27;45540;-68
2023/04/02 00:15:38;;;;;;;;;3.00;1.67;;;;;;;;5041422;28;45590;-68
2023/04/02 00:18:04;;;;;;;;;5.67;5.67;;;;;;;;5063715;28;45547;-68
2023/04/02 00:20:31;;;;;;;;;5.00;5.00;;;;;;;;5074084;27;45496;-68
2023/04/02 00:22:57;;;;;;;;;5.00;5.00;;;;;;;;5073924;27;45479;-68
2023/04/02 00:25:25;;;;;;;;;4.33;4.33;;;;;;;;5073960;28;45753;-68
2023/04/02 00:27:50;;;;;;;;;4.00;4.00;;;;;;;;5073983;27;45500;-68
2023/04/02 00:30:16;;;;;;;;;6.00;5.00;;;;;;;;5070912;27;45488;-68
2023/04/02 00:32:41;;;;;;;;;4.67;4.00;;;;;;;;5073223;28;46409;-68
2023/04/02 00:35:24;;;;;;;;;3.00;3.00;;;;;;;;5073077;27;45563;-68
2023/04/02 00:37:49;;;;;;;;;5.00;5.00;;;;;;;;5072814;28;45620;-68
2023/04/02 00:40:25;;;;;;;;;7.00;6.00;;;;;;;;5073784;27;45622;-68
2023/04/02 00:42:52;;;;;;;;;5.00;5.00;;;;;;;;5073676;27;45492;-68
2023/04/02 00:45:22;;;;;;;;;5.00;5.00;;;;;;;;5070417;28;45796;-68
2023/04/02 00:47:48;;;;;;;;;5.00;5.00;;;;;;;;5073831;28;45481;-68
2023/04/02 00:50:16;;;;;;;;;5.00;4.33;;;;;;;;5073376;27;45412;-68
2023/04/02 00:52:43;;;;;;;;;6.00;4.67;;;;;;;;5073666;27;45421;-68
2023/04/02 00:55:13;;;;;;;;;9.00;6.33;;;;;;;;5073705;28;45366;-68
2023/04/02 00:57:43;;;;;;;;;7.33;7.33;;;;;;;;5073675;27;45413;-68
2023/04/02 01:00:20;;;;;;;;;4.67;4.67;;;;;;;;5070646;27;45660;-68
2023/04/02 01:03:05;;;;;;;;;6.00;6.00;;;;;;;;5073403;27;45495;-68
2023/04/02 01:05:33;;;;;;;;;5.00;5.00;;;;;;;;5065621;27;45494;-68
2023/04/02 01:08:04;;;;;;;;;5.00;4.67;;;;;;;;5072721;28;45577;-68
2023/04/02 01:10:44;;;;;;;;;7.67;6.67;;;;;;;;5072358;27;45523;-68
2023/04/02 01:13:18;;;;;;;;;6.67;6.67;;;;;;;;5071532;27;45478;-67
2023/04/02 01:16:05;;;;;;;;;5.33;5.00;;;;;;;;5073100;27;45445;-68
2023/04/02 01:18:36;;;;;;;;;3.00;3.00;;;;;;;;5072040;28;45460;-68
2023/04/02 01:21:06;;;;;;;;;6.67;6.00;;;;;;;;5072272;27;45483;-68
2023/04/02 01:23:31;;;;;;;;;5.00;5.00;;;;;;;;5073329;28;45500;-68
2023/04/02 01:26:23;;;;;;;;;4.00;4.00;;;;;;;;5073141;27;45535;-68
2023/04/02 01:29:00;;;;;;;;;6.00;4.33;;;;;;;;5055392;28;45589;-68
2023/04/02 01:31:26;;;;;;;;;5.67;5.67;;;;;;;;5072976;28;45566;-68
2023/04/02 01:33:51;;;;;;;;;4.00;3.67;;;;;;;;5070939;27;46190;-68
2023/04/02 01:36:43;;;;;;;;;4.00;3.67;;;;;;;;5060517;28;45568;-68
2023/04/02 01:39:18;;;;;;;;;3.00;3.00;;;;;;;;5071277;27;45453;-68
2023/04/02 01:41:55;;;;;;;;;2.67;2.67;;;;;;;;5073589;27;45539;-68
2023/04/02 01:44:26;;;;;;;;;3.67;3.67;;;;;;;;5067991;27;46186;-68
2023/04/02 01:46:51;;;;;;;;;2.00;2.00;;;;;;;;5076365;27;45493;-68
2023/04/02 01:49:20;;;;;;;;;4.00;4.00;;;;;;;;5075530;27;45862;-68
2023/04/02 01:51:50;;;;;;;;;2.67;2.67;;;;;;;;5074502;27;46171;-68
2023/04/02 01:54:16;;;;;;;;;4.00;4.00;;;;;;;;5075656;27;45515;-68
2023/04/02 01:56:42;;;;;;;;;5.00;3.00;;;;;;;;5075682;27;45534;-68
2023/04/02 01:59:09;;;;;;;;;3.00;3.00;;;;;;;;5074898;27;45779;-68
2023/04/02 02:01:47;;;;;;;;;3.00;3.00;;;;;;;;5075334;27;45560;-68
2023/04/02 02:04:13;;;;;;;;;1.33;1.33;;;;;;;;5073193;27;47140;-68
2023/04/02 02:06:39;;;;;;;;;2.00;2.00;;;;;;;;5075977;27;45481;-68
2023/04/02 02:09:06;;;;;;;;;3.00;3.00;;;;;;;;5073873;27;45447;-68
2023/04/02 02:11:32;;;;;;;;;3.00;1.67;;;;;;;;5073430;27;45466;-68
2023/04/02 02:13:59;;;;;;;;;3.00;3.00;;;;;;;;5068547;27;46148;-68
2023/04/02 02:16:28;;;;;;;;;2.33;2.33;;;;;;;;5076016;27;45506;-68
2023/04/02 02:18:56;;;;;;;;;3.67;3.67;;;;;;;;5075933;27;45480;-68
2023/04/02 02:21:30;;;;;;;;;1.00;1.00;;;;;;;;5075605;27;45569;-67
2023/04/02 02:23:56;;;;;;;;;2.00;1.33;;;;;;;;5075754;27;46099;-68
2023/04/02 02:26:23;;;;;;;;;2.00;1.67;;;;;;;;5072536;27;45588;-68
2023/04/02 02:28:51;;;;;;;;;3.67;2.67;;;;;;;;5055490;28;45516;-68
2023/04/02 02:31:21;;;;;;;;;1.33;1.33;;;;;;;;5071297;27;45418;-68
2023/04/02 02:33:50;;;;;;;;;3.00;2.00;;;;;;;;5075523;27;45485;-68
2023/04/02 02:36:21;;;;;;;;;1.00;1.00;;;;;;;;5075336;27;45548;-68
2023/04/02 02:38:47;;;;;;;;;1.67;1.67;;;;;;;;5075713;27;46066;-67
2023/04/02 02:41:15;;;;;;;;;2.00;2.00;;;;;;;;5069372;27;45635;-68
2023/04/02 02:43:43;;;;;;;;;3.00;3.00;;;;;;;;5075424;27;45548;-68
2023/04/02 02:46:12;;;;;;;;;1.00;1.00;;;;;;;;5074577;27;45520;-68
2023/04/02 02:48:39;;;;;;;;;2.33;2.00;;;;;;;;5073999;27;45649;-68
2023/04/02 02:51:07;;;;;;;;;2.00;2.00;;;;;;;;5075685;27;45599;-68
2023/04/02 02:53:33;;;;;;;;;1.33;1.33;;;;;;;;5068099;27;46146;-68
2023/04/02 02:56:00;;;;;;;;;2.00;2.00;;;;;;;;5068986;27;45490;-68
2023/04/02 02:58:27;;;;;;;;;1.00;1.00;;;;;;;;5071125;27;45505;-68
2023/04/02 03:00:52;;;;;;;;;1.67;1.67;;;;;;;;5074568;27;45579;-68
2023/04/02 03:03:23;;;;;;;;;0.33;0.33;;;;;;;;5074789;27;46219;-68
2023/04/02 03:05:52;;;;;;;;;1.00;1.00;;;;;;;;5074929;27;45482;-68
2023/04/02 03:08:39;;;;;;;;;1.00;1.00;;;;;;;;5074497;27;45551;-68
2023/04/02 03:11:05;;;;;;;;;2.33;2.33;;;;;;;;5073183;27;45546;-68
2023/04/02 03:13:31;;;;;;;;;1.00;1.00;;;;;;;;5074787;27;45402;-68
2023/04/02 03:16:01;;;;;;;;;1.00;1.00;;;;;;;;5074855;27;45520;-68
2023/04/02 03:18:32;;;;;;;;;1.00;1.00;;;;;;;;5075089;27;45505;-69
2023/04/02 03:21:03;;;;;;;;;1.00;1.00;;;;;;;;5074178;27;45528;-68
2023/04/02 03:23:35;;;;;;;;;1.00;1.00;;;;;;;;5074683;27;45451;-68
2023/04/02 03:26:03;;;;;;;;;1.00;1.00;;;;;;;;5072280;27;45604;-68
2023/04/02 03:28:30;;;;;;;;;1.00;1.00;;;;;;;;5066685;27;45427;-68
2023/04/02 03:31:02;;;;;;;;;2.67;1.00;;;;;;;;5069852;27;45667;-68
2023/04/02 03:33:31;;;;;;;;;1.00;1.00;;;;;;;;5063771;27;46326;-68
2023/04/02 03:36:01;;;;;;;;;1.00;1.00;;;;;;;;5074735;27;45598;-68
2023/04/02 03:38:29;;;;;;;;;1.00;1.00;;;;;;;;5073184;27;45526;-68
2023/04/02 03:41:02;;;;;;;;;1.00;1.00;;;;;;;;5072937;27;45616;-68
2023/04/02 03:43:31;;;;;;;;;2.33;1.00;;;;;;;;5074546;27;45582;-68
2023/04/02 03:46:06;;;;;;;;;2.00;1.00;;;;;;;;5073654;27;45776;-68
2023/04/02 03:48:46;;;;;;;;;2.00;1.33;;;;;;;;5061895;27;45534;-68
2023/04/02 03:51:12;;;;;;;;;2.67;2.67;;;;;;;;5074161;27;45576;-68
2023/04/02 03:53:37;;;;;;;;;2.00;2.00;;;;;;;;5074400;27;45490;-69
2023/04/02 03:56:03;;;;;;;;;3.00;3.00;;;;;;;;5068289;27;45454;-68
2023/04/02 03:58:32;;;;;;;;;2.33;2.33;;;;;;;;5072548;27;45426;-68
2023/04/02 04:01:16;;;;;;;;;4.33;4.00;;;;;;;;5074346;27;45902;-67
2023/04/02 04:03:43;;;;;;;;;3.67;3.67;;;;;;;;5074008;27;45992;-68
2023/04/02 04:06:11;;;;;;;;;5.00;5.00;;;;;;;;5073328;27;45589;-67
2023/04/02 04:08:41;;;;;;;;;4.00;4.00;;;;;;;;5070908;27;45471;-67
2023/04/02 04:11:09;;;;;;;;;5.00;5.00;;;;;;;;5065401;27;45524;-67
2023/04/02 04:13:40;;;;;;;;;7.00;7.00;;;;;;;;5072997;27;46159;-68
2023/04/02 04:16:10;;;;;;;;;6.00;6.00;;;;;;;;5067640;27;45473;-68
2023/04/02 04:18:47;;;;;;;;;6.00;6.00;;;;;;;;5065745;27;45530;-67
2023/04/02 04:21:35;;;;;;;;;7.33;7.33;;;;;;;;5074043;27;45591;-68
2023/04/02 04:24:02;;;;;;;;;7.67;7.67;;;;;;;;5073577;27;45963;-68
2023/04/02 04:26:29;;;;;;;;;7.67;6.00;;;;;;;;5070129;27;45586;-67
2023/04/02 04:29:14;;;;;;;;;7.00;7.00;;;;;;;;5067939;27;45775;-67
2023/04/02 04:31:45;;;;;;;;;9.00;7.67;;;;;;;;5073442;28;45516;-67
2023/04/02 04:34:14;;;;;;;;;7.33;6.33;;;;;;;;5073742;27;45582;-67
2023/04/02 04:36:53;;;;;;;;;9.00;8.33;;;;;;;;5073864;28;45441;-68
2023/04/02 04:39:22;;;;;;;;;6.67;6.67;;;;;;;;5073565;27;45533;-67
2023/04/02 04:41:48;;;;;;;;;11.33;11.33;;;;;;;;5061367;27;45496;-67
2023/04/02 04:44:27;;;;;;;;;10.33;7.00;;;;;;;;5072018;27;46132;-67
2023/04/02 04:46:52;;;;;;;;;6.67;6.67;;;;;;;;5059673;27;45542;-67
2023/04/02 04:49:36;;;;;;;;;9.33;8.67;;;;;;;;5073929;28;45514;-67
2023/04/02 04:52:13;;;;;;;;;13.00;12.00;;;;;;;;5072673;28;45405;-67
2023/04/02 04:54:38;;;;;;;;;10.00;10.00;;;;;;;;5069999;27;46197;-67
2023/04/02 04:57:05;;;;;;;;;12.67;10.00;;;;;;;;5071777;27;45528;-67
2023/04/02 04:59:30;;;;;;;;;11.00;8.67;;;;;;;;5073534;27;45563;-67
2023/04/02 05:02:14;;;;;;;;;12.00;11.00;;;;;;;;5073114;27;45471;-67
2023/04/02 05:04:41;;;;;;;;;12.00;12.00;;;;;;;;5069572;27;46473;-67
2023/04/02 05:07:06;;;;;;;;;11.00;11.00;;;;;;;;5073336;27;45801;-67
2023/04/02 05:09:43;;;;;;;;;14.67;12.00;;;;;;;;5065165;27;45604;-68
2023/04/02 05:12:26;;;;;;;;;11.00;9.00;;;;;;;;5073101;27;45698;-67
2023/04/02 05:15:00;;;;;;;;;9.67;8.67;;;;;;;;5071623;27;45660;-68
2023/04/02 05:17:35;;;;;;;;;12.67;8.67;;;;;;;;5077439;27;45615;-67
2023/04/02 05:20:09;;;;;;;;;13.00;11.33;;;;;;;;5076909;27;45564;-68
2023/04/02 05:22:53;;;;;;;;;15.33;13.33;;;;;;;;5076396;27;45448;-68
2023/04/02 05:25:26;;;;;;;;;13.67;12.33;;;;;;;;5068010;27;45751;-68
2023/04/02 05:27:57;;;;;;;;;13.33;12.33;;;;;;;;5075604;27;45769;-68
2023/04/02 05:30:22;;;;;;;;;15.33;13.67;;;;;;;;5076564;27;45486;-68
2023/04/02 05:32:57;;;;;;;;;13.67;12.00;;;;;;;;5074064;27;45532;-68
2023/04/02 05:35:27;;;;;;;;;12.00;10.33;;;;;;;;5072042;28;45553;-67
2023/04/02 05:37:52;;;;;;;;;10.00;9.00;;;;;;;;5074140;27;45498;-68
2023/04/02 05:40:41;;;;;;;;;9.00;9.00;;;;;;;;5076492;27;45533;-68
2023/04/02 05:43:10;;;;;;;;;13.33;13.00;;;;;;;;5060436;28;45469;-68
2023/04/02 05:45:37;;;;;;;;;13.00;10.33;;;;;;;;5073736;27;45540;-68
2023/04/02 05:48:13;;;;;;;;;9.00;9.00;;;;;;;;5076220;28;45466;-68
2023/04/02 05:50:41;;;;;;;;;9.67;9.67;;;;;;;;5067715;28;45493;-68
2023/04/02 05:53:30;;;;;;;;;13.67;12.33;;;;;;;;5072578;28;45727;-67
2023/04/02 05:56:25;;;;;;;;;9.33;9.33;;;;;;;;5070657;27;45964;-68
2023/04/02 05:59:06;;;;;;;;;15.00;10.00;;;;;;;;5065917;27;45397;-68
2023/04/02 06:01:38;;;;;;;;;12.00;11.33;;;;;;;;5075200;27;45510;-68
2023/04/02 06:04:12;;;;;;;;;14.33;14.33;;;;;;;;5076046;27;45493;-68
2023/04/02 06:06:41;;;;;;;;;12.00;12.00;;;;;;;;5073042;27;46136;-68
2023/04/02 06:09:10;;;;;;;;;10.67;10.67;;;;;;;;5074635;27;45536;-68
2023/04/02 06:11:45;;;;;;;;;11.67;10.67;;;;;;;;5076289;27;45571;-68
2023/04/02 06:14:11;;;;;;;;;10.67;10.67;;;;;;;;5074441;27;45672;-68
2023/04/02 06:16:37;;;;;;;;;10.00;10.00;;;;;;;;5075016;27;46729;-68
2023/04/02 06:19:06;;;;;;;;;10.33;8.00;;;;;;;;5073708;27;45580;-68
2023/04/02 06:21:31;;;;;;;;;10.00;9.00;;;;;;;;5062925;28;45407;-68
2023/04/02 06:24:02;;;;;;;;;10.33;10.33;;;;;;;;5074591;27;45468;-68
2023/04/02 06:26:30;;;;;;;;;10.33;7.00;;;;;;;;5074827;27;45488;-68
2023/04/02 06:29:14;;;;;;;;;10.67;8.33;;;;;;;;5074196;27;45441;-68
2023/04/02 06:31:57;;;;;;;;;9.33;8.00;;;;;;;;5072631;27;45501;-68
2023/04/02 06:34:23;;;;;;;;;8.00;7.67;;;;;;;;5067279;27;45552;-69
2023/04/02 06:36:50;;;;;;;;;10.67;9.00;;;;;;;;5075306;27;45506;-68
2023/04/02 06:39:21;;;;;;;;;7.00;7.00;;;;;;;;5074349;27;45449;-68
2023/04/02 06:41:52;;;;;;;;;8.00;7.00;;;;;;;;5063062;27;45586;-68
2023/04/02 06:44:21;;;;;;;;;8.00;8.00;;;;;;;;5075511;27;45496;-68
2023/04/02 06:46:51;;;;;;;;;9.33;7.00;;;;;;;;5075160;27;46230;-68
2023/04/02 06:49:35;;;;;;;;;8.00;8.00;;;;;;;;5065136;27;45564;-68
2023/04/02 06:52:02;;;;;;;;;10.67;10.67;;;;;;;;5063104;28;45548;-68
2023/04/02 06:54:27;;;;;;;;;8.67;7.33;;;;;;;;5074810;27;45405;-68
2023/04/02 06:56:55;;;;;;;;;10.00;10.00;;;;;;;;5069331;27;46140;-68
2023/04/02 06:59:20;;;;;;;;;7.67;7.67;;;;;;;;5067526;27;45480;-68
2023/04/02 07:02:02;;;;;;;;;10.00;9.00;;;;;;;;5070184;27;45691;-68
2023/04/02 07:04:27;;;;;;;;;7.33;7.33;;;;;;;;5068394;27;45661;-68
2023/04/02 07:06:53;;;;;;;;;8.33;7.67;;;;;;;;5074895;27;45974;-68
2023/04/02 07:09:18;;;;;;;;;8.33;8.33;;;;;;;;5074996;28;46046;-68
2023/04/02 07:11:44;;;;;;;;;9.00;7.00;;;;;;;;5074362;27;45512;-68
2023/04/02 07:14:11;;;;;;;;;8.00;8.00;;;;;;;;5073974;27;45557;-69
2023/04/02 07:16:37;;;;;;;;;8.00;8.00;;;;;;;;5074884;27;45490;-68
2023/04/02 07:19:03;;;;;;;;;8.67;8.67;;;;;;;;5068269;27;45505;-59
2023/04/02 07:21:28;;;;;;;;;7.00;7.00;;;;;;;;5063647;27;45485;-59
2023/04/02 07:23:54;;;;;;;;;10.33;8.00;;;;;;;;5074192;27;45631;-64
2023/04/02 07:26:22;;;;;;;;;8.67;8.67;;;;;;;;5070838;28;46143;-60
2023/04/02 07:28:47;;;;;;;;;12.00;10.67;;;;;;;;5074246;28;45527;-60
2023/04/02 07:31:25;;;;;;;;;9.00;8.00;;;;;;;;5074505;27;45792;-60
2023/04/02 07:33:52;;;;;;;;;8.67;7.67;;;;;;;;5069269;27;45567;-59
2023/04/02 07:36:19;;;;;;;;;10.33;10.33;;;;;;;;5060002;27;46199;-60
2023/04/02 07:38:45;;;;;;;;;13.33;10.67;;;;;;;;5070869;27;45580;-60
2023/04/02 07:41:10;;;;;;;;;9.00;9.00;;;;;;;;5071718;27;45602;-59
2023/04/02 07:43:36;;;;;;;;;11.67;10.00;;;;;;;;5070729;28;45505;-60
2023/04/02 07:46:02;;;;;;;;;15.33;8.33;;;;;;;;5062712;28;45570;-59
2023/04/02 07:48:28;;;;;;;;;10.33;9.67;;;;;;;;5064633;28;45542;-61
2023/04/02 07:50:53;;;;;;;;;9.33;7.67;;;;;;;;5074626;28;45518;-59
2023/04/02 07:53:27;;;;;;;;;14.00;12.67;;;;;;;;5068449;27;45480;-59
2023/04/02 07:55:52;;;;;;;;;12.00;9.67;;;;;;;;5065480;27;45478;-59
2023/04/02 07:58:17;;;;;;;;;16.67;12.00;;;;;;;;5073628;27;45450;-59
2023/04/02 08:00:43;;;;;;;;;14.33;11.00;;;;;;;;5073737;28;46124;-59
2023/04/02 08:03:08;;;;;;;;;13.00;12.00;;;;;;;;5070539;27;45428;-59
2023/04/02 08:05:34;;;;;;;;;11.33;9.00;;;;;;;;5073478;27;46223;-60
2023/04/02 08:07:59;;;;;;;;;8.00;8.00;;;;;;;;5073884;27;45461;-59
2023/04/02 08:10:24;;;;;;;;;12.00;12.00;;;;;;;;5071907;27;45527;-59
2023/04/02 08:12:50;;;;;;;;;9.67;8.67;;;;;;;;5067979;28;45627;-59
2023/04/02 08:15:15;;;;;;;;;12.67;11.00;;;;;;;;5066134;27;46870;-59
2023/04/02 08:17:41;;;;;;;;;13.00;13.00;;;;;;;;5074175;28;45595;-60
2023/04/02 08:20:09;;;;;;;;;12.67;12.67;;;;;;;;5066600;27;45593;-60
2023/04/02 08:22:34;;;;;;;;;9.00;9.00;;;;;;;;5070312;27;45481;-59
2023/04/02 08:25:00;;;;;;;;;11.67;9.00;;;;;;;;5057614;28;45512;-59
2023/04/02 08:27:25;;;;;;;;;14.00;12.67;;;;;;;;5058650;27;45575;-59
2023/04/02 08:29:50;;;;;;;;;13.67;9.00;;;;;;;;5074017;27;45379;-59
2023/04/02 08:32:16;;;;;;;;;14.00;13.33;;;;;;;;5073359;27;45585;-60
2023/04/02 08:34:41;;;;;;;;;13.00;12.33;;;;;;;;5067211;27;45998;-57
2023/04/02 08:37:08;;;;;;;;;13.67;12.67;;;;;;;;5061527;28;45547;-67
2023/04/02 08:39:34;;;;;;;;;18.75;16.00;;;;;;;;5071081;27;45499;-67
2023/04/02 08:42:05;;;;;;;;;12.67;12.67;;;;;;;;5071986;28;45516;-65
2023/04/02 08:44:46;;;;;;;;;12.33;12.33;;;;;;;;5065437;27;45477;-51
2023/04/02 08:47:13;;;;;;;;;13.67;12.67;;;;;;;;5064281;27;45492;-59
2023/04/02 08:49:50;;;;;;;;;13.00;13.00;;;;;;;;5068902;27;45555;-57
2023/04/02 08:52:23;;;;;;;;;17.33;14.67;;;;;;;;5072270;27;45591;-61
2023/04/02 08:54:49;;;;;;;;;14.00;14.00;;;;;;;;5072834;28;45500;-62
2023/04/02 08:57:14;;;;;;;;;15.67;15.67;;;;;;;;5070637;27;45565;-62
2023/04/02 08:59:41;;;;;;;;;15.33;15.33;;;;;;;;5068866;27;45501;-62
2023/04/02 09:02:06;;;;;;;;;15.50;15.50;;;;;;;;5064232;28;45537;-62
2023/04/02 09:04:32;;;;;;;;;15.33;14.33;;;;;;;;5067208;27;45444;-61
2023/04/02 09:06:58;;;;;;;;;13.33;13.33;;;;;;;;5069448;27;45791;-60
2023/04/02 09:09:24;;;;;;;;;14.33;14.00;;;;;;;;5071757;28;45467;-60
2023/04/02 09:11:57;;;;;;;;;14.67;14.67;;;;;;;;5073274;27;45590;-60
2023/04/02 09:14:29;;;;;;;;;13.33;12.33;;;;;;;;5060836;27;45981;-62
2023/04/02 09:16:59;;;;;;;;;15.67;14.33;;;;;;;;5073038;27;45574;-62
2023/04/02 09:19:30;;;;;;;;;12.00;12.00;;;;;;;;5073038;27;45478;-59
2023/04/02 09:22:02;;;;;;;;;10.00;10.00;;;;;;;;5073293;27;45418;-61
2023/04/02 09:24:27;;;;;;;;;14.33;12.67;;;;;;;;5066784;28;45511;-59
2023/04/02 09:26:53;;;;;;;;;14.33;12.00;;;;;;;;5073239;28;45493;-62
2023/04/02 09:29:24;;;;;;;;;23.00;18.67;;;;;;;;5072650;27;45474;-59
2023/04/02 09:32:06;;;;;;;;;8.33;8.33;;;;;;;;5069008;28;45580;-62
2023/04/02 09:34:33;;;;;;;;;11.33;10.33;;;;;;;;5072949;27;45479;-58
2023/04/02 09:37:06;;;;;;;;;10.33;9.33;;;;;;;;5072871;27;45537;-57
2023/04/02 09:39:31;;;;;;;;;13.33;11.33;;;;;;;;5061894;28;45578;-56
2023/04/02 09:41:56;;;;;;;;;13.00;11.33;;;;;;;;5072660;27;45497;-60
2023/04/02 09:44:30;;;;;;;;;14.00;13.00;;;;;;;;5073053;27;45598;-61
2023/04/02 09:47:02;;;;;;;;;13.33;12.00;;;;;;;;5081194;27;45416;-62
2023/04/02 09:49:29;;;;;;;;;15.00;13.33;;;;;;;;5072538;27;45583;-61
2023/04/02 09:52:05;;;;;;;;;13.33;11.33;;;;;;;;5070494;27;45576;-62
2023/04/02 09:54:31;;;;;;;;;13.33;13.00;;;;;;;;5070058;27;45573;-62
2023/04/02 09:56:59;;;;;;;;;13.00;11.00;;;;;;;;5072545;28;45625;-62
2023/04/02 09:59:25;;;;;;;;;9.00;9.00;;;;;;;;5073147;28;45485;-60
2023/04/02 10:01:53;;;;;;;;;13.00;13.00;;;;;;;;5072448;27;45561;-60
2023/04/02 10:04:42;;;;;;;;;12.00;12.00;;;;;;;;5075702;27;45501;-60
2023/04/02 10:07:28;;;;;;;;;14.00;12.00;;;;;;;;5069699;27;45458;-60
2023/04/02 10:10:16;;;;;;;;;14.00;13.00;;;;;;;;5074893;28;45540;-61
2023/04/02 10:12:42;;;;;;;;;16.00;13.33;;;;;;;;5076014;27;45611;-62
2023/04/02 10:15:14;;;;;;;;;16.00;11.00;;;;;;;;5075857;27;45486;-60
2023/04/02 10:17:39;;;;;;;;;15.33;12.67;;;;;;;;5075971;27;45444;-60
2023/04/02 10:20:14;;;;;;;;;13.00;13.00;;;;;;;;5066022;27;45603;-62
2023/04/02 10:22:40;;;;;;;;;15.75;15.00;;;;;;;;5074341;27;45397;-60
2023/04/02 10:25:25;;;;;;;;;14.67;13.67;;;;;;;;5074088;27;45917;-61
2023/04/02 10:27:55;;;;;;;;;12.00;11.33;;;;;;;;5062059;27;45549;-61
2023/04/02 10:30:41;;;;;;;;;12.33;12.33;;;;;;;;5065457;28;45552;-61
2023/04/02 10:33:09;;;;;;;;;14.33;13.00;;;;;;;;5065919;27;45501;-61
2023/04/02 10:35:53;;;;;;;;;13.67;10.00;;;;;;;;5075305;27;45505;-63
2023/04/02 10:38:21;;;;;;;;;11.33;11.33;;;;;;;;5063802;27;45652;-61
2023/04/02 10:40:51;;;;;;;;;10.00;10.00;;;;;;;;5070671;27;45506;-59
2023/04/02 10:43:31;;;;;;;;;16.00;13.33;;;;;;;;5067769;27;45515;-64
2023/04/02 10:46:01;;;;;;;;;14.67;12.67;;;;;;;;5073996;27;45610;-58
2023/04/02 10:48:42;;;;;;;;;14.00;8.67;;;;;;;;5075176;27;45567;-62
2023/04/02 10:51:27;;;;;;;;;12.33;12.33;;;;;;;;5060461;27;45407;-58
2023/04/02 10:54:06;;;;;;;;;13.00;13.00;;;;;;;;5022657;27;46207;-59
2023/04/02 10:56:31;;;;;;;;;14.33;14.33;;;;;;;;5070788;27;46435;-63
2023/04/02 10:59:01;;;;;;;;;14.00;14.00;;;;;;;;5074784;27;45533;-63
2023/04/02 11:01:28;;;;;;;;;13.75;13.75;;;;;;;;5071992;27;45458;-61
2023/04/02 11:03:54;;;;;;;;;14.33;13.00;;;;;;;;5070465;27;45488;-62
2023/04/02 11:06:22;;;;;;;;;13.75;13.25;;;;;;;;5068824;27;45773;-63
2023/04/02 11:08:50;;;;;;;;;14.67;14.67;;;;;;;;5053306;28;46351;-63
2023/04/02 11:11:21;;;;;;;;;12.67;12.67;;;;;;;;5050260;27;45634;-63
2023/04/02 11:13:49;;;;;;;;;12.00;8.33;;;;;;;;5068552;27;45644;-64
2023/04/02 11:16:15;;;;;;;;;17.75;14.00;;;;;;;;5069709;27;45463;-62
2023/04/02 11:18:41;;;;;;;;;15.00;14.00;;;;;;;;5071635;27;45452;-62
2023/04/02 11:21:25;;;;;;;;;18.25;17.00;;;;;;;;5071462;27;45687;-64
2023/04/02 11:23:54;;;;;;;;;18.75;15.75;;;;;;;;5067565;27;45443;-63
2023/04/02 11:26:28;;;;;;;;;20.75;18.75;;;;;;;;5074593;27;45535;-63
2023/04/02 11:29:27;;;;;;;;;17.50;15.50;;;;;;;;5073610;27;45646;-63
2023/04/02 11:32:10;;;;;;;;;22.25;20.00;;;;;;;;5027098;28;45504;-64
2023/04/02 11:34:49;;;;;;;;;17.50;17.50;;;;;;;;5074381;27;45641;-63
2023/04/02 11:37:33;;;;;;;;;20.00;20.00;;;;;;;;5078641;27;45482;-63
2023/04/02 11:40:06;;;;;;;;;20.50;18.25;;;;;;;;5067635;27;45608;-63
2023/04/02 11:42:32;;;;;;;;;16.00;16.00;;;;;;;;5064992;27;45434;-61
2023/04/02 11:45:17;;;;;;;;;17.25;16.50;;;;;;;;5060158;27;45507;-61
2023/04/02 11:48:06;;;;;;;;;18.50;17.50;;;;;;;;5070666;27;46109;-61
2023/04/02 11:50:45;;;;;;;;;20.50;18.00;;;;;;;;5074135;27;45422;-63
2023/04/02 11:53:13;;;;;;;;;16.00;15.00;;;;;;;;5074607;27;45537;-62
2023/04/02 11:55:40;;;;;;;;;16.00;16.00;;;;;;;;5067753;27;45505;-61
2023/04/02 11:58:24;;;;;;;;;15.33;15.33;;;;;;;;5072194;27;46153;-61
2023/04/02 12:00:56;;;;;;;;;15.00;15.00;;;;;;;;5069678;27;45612;-60
2023/04/02 12:03:37;;;;;;;;;18.25;17.00;;;;;;;;5071614;28;45415;-61
2023/04/02 12:06:17;;;;;;;;;14.00;13.00;;;;;;;;5074433;27;45700;-60
2023/04/02 12:09:02;;;;;;;;;13.67;12.67;;;;;;;;5073794;27;45497;-60
2023/04/02 12:11:37;;;;;;;;;14.67;13.00;;;;;;;;5074245;27;45390;-60
2023/04/02 12:14:21;;;;;;;;;13.67;13.33;;;;;;;;5074291;27;45484;-61
2023/04/02 12:16:47;;;;;;;;;14.00;13.33;;;;;;;;5072447;27;45473;-60
2023/04/02 12:19:15;;;;;;;;;14.00;12.67;;;;;;;;5061595;27;45402;-61
2023/04/02 12:21:45;;;;;;;;;23.75;23.75;;;;;;;;5074064;27;45545;-61
2023/04/02 12:24:16;;;;;;;;;14.33;14.00;;;;;;;;5074034;27;46061;-59
2023/04/02 12:26:45;;;;;;;;;15.33;14.00;;;;;;;;5073230;27;45728;-60
2023/04/02 12:29:25;;;;;;;;;14.33;11.33;;;;;;;;5073696;27;46061;-60
2023/04/02 12:31:51;;;;;;;;;14.67;14.00;;;;;;;;5072490;27;45516;-60
2023/04/02 12:34:19;;;;;;;;;15.33;14.33;;;;;;;;5071105;27;45575;-59
2023/04/02 12:37:10;;;;;;;;;16.00;16.00;;;;;;;;5073949;27;45425;-61
2023/04/02 12:39:44;;;;;;;;;12.67;11.00;;;;;;;;5070774;28;46174;-60
2023/04/02 12:42:26;;;;;;;;;14.33;14.33;;;;;;;;5073029;27;45508;-61
2023/04/02 12:44:52;;;;;;;;;19.50;15.75;;;;;;;;5073758;27;45439;-60
2023/04/02 12:47:18;;;;;;;;;13.67;13.67;;;;;;;;5069340;28;45572;-61
2023/04/02 12:49:45;;;;;;;;;15.67;14.67;;;;;;;;5071039;27;46132;-60
2023/04/02 12:52:12;;;;;;;;;15.67;13.00;;;;;;;;5073435;27;45504;-61
2023/04/02 12:54:44;;;;;;;;;15.00;13.33;;;;;;;;5073530;27;45571;-61
2023/04/02 12:57:20;;;;;;;;;17.33;16.67;;;;;;;;5072033;27;45565;-63
2023/04/02 12:59:46;;;;;;;;;16.75;13.75;;;;;;;;5073211;28;45512;-61
2023/04/02 13:02:19;;;;;;;;;16.75;14.25;;;;;;;;5067533;27;45646;-61
2023/04/02 13:04:55;;;;;;;;;17.75;16.75;;;;;;;;5066676;28;45429;-61
2023/04/02 13:07:25;;;;;;;;;21.25;16.00;;;;;;;;5073719;28;45493;-62
2023/04/02 13:09:51;;;;;;;;;20.50;17.25;;;;;;;;5073329;27;45527;-59
2023/04/02 13:12:26;;;;;;;;;18.00;15.33;;;;;;;;5071968;27;45569;-62
2023/04/02 13:14:55;;;;;;;;;17.50;16.00;;;;;;;;5073470;27;45439;-62
2023/04/02 13:17:41;;;;;;;;;18.33;15.00;;;;;;;;5066813;28;45482;-61
2023/04/02 13:20:25;;;;;;;;;17.00;16.50;;;;;;;;5073072;27;45449;-62
2023/04/02 13:22:51;;;;;;;;;16.33;15.33;;;;;;;;5073099;27;45477;-62
2023/04/02 13:25:16;;;;;;;;;17.75;16.00;;;;;;;;5051660;28;45603;-61
2023/04/02 13:27:41;;;;;;;;;18.33;16.00;;;;;;;;5071020;28;45479;-62
2023/04/02 13:30:19;;;;;;;;;14.67;12.33;;;;;;;;5073349;28;45625;-62
2023/04/02 13:32:46;;;;;;;;;15.33;15.33;;;;;;;;5062135;27;45415;-62
2023/04/02 13:35:14;;;;;;;;;11.67;11.67;;;;;;;;5073125;28;45454;-62
2023/04/02 13:37:39;;;;;;;;;11.67;11.67;;;;;;;;5074970;27;45544;-61
2023/04/02 13:40:07;;;;;;;;;15.67;11.00;;;;;;;;5076604;27;45711;-62
2023/04/02 13:42:32;;;;;;;;;14.00;11.33;;;;;;;;5076581;28;45387;-62
2023/04/02 13:44:58;;;;;;;;;11.33;11.00;;;;;;;;5075947;27;45739;-62
2023/04/02 13:47:23;;;;;;;;;12.33;9.33;;;;;;;;5073863;27;45554;-62
2023/04/02 13:49:50;;;;;;;;;10.33;9.00;;;;;;;;5076291;27;45530;-61
2023/04/02 13:52:16;;;;;;;;;14.67;10.67;;;;;;;;5076173;27;45507;-61
2023/04/02 13:54:47;;;;;;;;;14.00;12.67;;;;;;;;5075223;27;45416;-61
2023/04/02 13:57:13;;;;;;;;;13.67;12.67;;;;;;;;5076347;27;45500;-61
2023/04/02 13:59:38;;;;;;;;;12.00;9.67;;;;;;;;5075694;27;46196;-63
2023/04/02 14:02:07;;;;;;;;;12.33;12.00;;;;;;;;5070531;27;45560;-62
2023/04/02 14:04:41;;;;;;;;;14.00;12.33;;;;;;;;5076567;27;45469;-63
2023/04/02 14:07:32;;;;;;;;;13.00;13.00;;;;;;;;5076392;27;45589;-62
2023/04/02 14:10:04;;;;;;;;;11.33;11.33;;;;;;;;5074890;27;46848;-61
2023/04/02 14:12:44;;;;;;;;;15.00;14.00;;;;;;;;5076161;28;45572;-63
2023/04/02 14:15:28;;;;;;;;;10.67;10.67;;;;;;;;5071957;27;45466;-63
2023/04/02 14:18:13;;;;;;;;;13.67;11.00;;;;;;;;5061653;27;45554;-61
2023/04/02 14:20:42;;;;;;;;;13.00;11.67;;;;;;;;5075874;27;45473;-62
2023/04/02 14:23:09;;;;;;;;;13.00;13.00;;;;;;;;5075984;27;45524;-61
2023/04/02 14:25:36;;;;;;;;;11.33;11.33;;;;;;;;5075883;27;45508;-60
2023/04/02 14:28:02;;;;;;;;;12.67;11.67;;;;;;;;5076117;27;45508;-59
2023/04/02 14:30:30;;;;;;;;;13.00;10.67;;;;;;;;5066297;27;46090;-59
2023/04/02 14:33:22;;;;;;;;;11.67;10.00;;;;;;;;5070148;27;45518;-63
2023/04/02 14:35:52;;;;;;;;;9.33;9.33;;;;;;;;5066512;27;45449;-62
2023/04/02 14:38:31;;;;;;;;;11.67;9.33;;;;;;;;5075555;27;45470;-61
2023/04/02 14:41:04;;;;;;;;;12.67;8.67;;;;;;;;5075426;27;45570;-62
2023/04/02 14:43:41;;;;;;;;;15.00;15.00;;;;;;;;5075417;27;45476;-62
2023/04/02 14:46:11;;;;;;;;;16.00;14.00;;;;;;;;5075016;27;45508;-63
2023/04/02 14:48:40;;;;;;;;;10.00;10.00;;;;;;;;5074778;27;45607;-61
2023/04/02 14:51:21;;;;;;;;;15.67;13.67;;;;;;;;5075061;27;45414;-62
2023/04/02 14:53:50;;;;;;;;;16.33;15.00;;;;;;;;5075261;27;45485;-62